sensor_id;sensor_type;location;lat;lon;timestamp;pressure;altitude;pressure_sealevel;temperature;humidity
73981;BME280;62348;51.412;5.436;2023-07-20T00:01:07;101248.19;;;16.74;86.19
73981;BME280;62348;51.412;5.436;2023-07-20T00:03:32;101254.78;;;16.73;85.58
73981;BME280;62348;51.412;5.436;2023-07-20T00:05:57;101258.88;;;16.71;85.85
73981;BME280;62348;51.412;5.436;2023-07-20T00:08:23;101258.66;;;16.67;85.80
73981;BME280;62348;51.412;5.436;2023-07-20T00:10:49;101255.69;;;16.64;85.90
73981;BME280;62348;51.412;5.436;2023-07-20T00:13:14;101258.41;;;16.64;85.96
73981;BME280;62348;51.412;5.436;2023-07-20T00:15:41;101255.78;;;16.58;85.97
73981;BME280;62348;51.412;5.436;2023-07-20T00:18:07;101254.72;;;16.54;86.11
73981;BME280;62348;51.412;5.436;2023-07-20T00:20:32;101250.66;;;16.52;86.04
73981;BME280;62348;51.412;5.436;2023-07-20T00:22:58;101252.84;;;16.50;86.31
73981;BME280;62348;51.412;5.436;2023-07-20T00:25:24;101251.88;;;16.40;86.81
73981;BME280;62348;51.412;5.436;2023-07-20T00:27:49;101256.81;;;16.38;86.69
73981;BME280;62348;51.412;5.436;2023-07-20T00:30:15;101256.56;;;16.35;86.96
73981;BME280;62348;51.412;5.436;2023-07-20T00:32:42;101257.97;;;16.32;86.53
73981;BME280;62348;51.412;5.436;2023-07-20T00:35:08;101253.38;;;16.28;86.76
73981;BME280;62348;51.412;5.436;2023-07-20T00:37:34;101252.03;;;16.25;87.09
73981;BME280;62348;51.412;5.436;2023-07-20T00:39:59;101258.09;;;16.22;87.03
73981;BME280;62348;51.412;5.436;2023-07-20T00:42:24;101256.22;;;16.17;87.60
73981;BME280;62348;51.412;5.436;2023-07-20T00:44:50;101259.22;;;16.16;87.21
73981;BME280;62348;51.412;5.436;2023-07-20T00:47:15;101255.16;;;16.13;87.30
73981;BME280;62348;51.412;5.436;2023-07-20T00:49:41;101253.59;;;16.07;87.68
73981;BME280;62348;51.412;5.436;2023-07-20T00:52:07;101256.31;;;16.07;87.75
73981;BME280;62348;51.412;5.436;2023-07-20T00:54:33;101250.34;;;16.05;87.83
73981;BME280;62348;51.412;5.436;2023-07-20T00:57:01;101251.72;;;16.03;87.89
73981;BME280;62348;51.412;5.436;2023-07-20T00:59:27;101255.03;;;15.99;87.45
73981;BME280;62348;51.412;5.436;2023-07-20T01:01:52;101258.31;;;15.96;87.94
73981;BME280;62348;51.412;5.436;2023-07-20T01:04:18;101258.56;;;16.00;88.08
73981;BME280;62348;51.412;5.436;2023-07-20T01:09:28;101262.44;;;15.94;87.78
73981;BME280;62348;51.412;5.436;2023-07-20T01:12:06;101262.16;;;15.95;87.94
73981;BME280;62348;51.412;5.436;2023-07-20T01:14:34;101267.13;;;15.88;88.57
73981;BME280;62348;51.412;5.436;2023-07-20T01:16:59;101265.50;;;15.87;88.15
73981;BME280;62348;51.412;5.436;2023-07-20T01:19:25;101268.81;;;15.84;88.28
73981;BME280;62348;51.412;5.436;2023-07-20T01:21:58;101261.72;;;15.83;88.08
73981;BME280;62348;51.412;5.436;2023-07-20T01:27:22;101266.09;;;15.84;87.98
73981;BME280;62348;51.412;5.436;2023-07-20T01:32:31;101260.41;;;15.70;89.29
73981;BME280;62348;51.412;5.436;2023-07-20T01:34:58;101267.78;;;15.70;89.48
73981;BME280;62348;51.412;5.436;2023-07-20T01:37:25;101262.63;;;15.68;89.12
73981;BME280;62348;51.412;5.436;2023-07-20T01:39:55;101263.22;;;15.65;89.26
73981;BME280;62348;51.412;5.436;2023-07-20T01:42:22;101257.78;;;15.60;89.18
73981;BME280;62348;51.412;5.436;2023-07-20T01:44:51;101262.19;;;15.56;89.25
73981;BME280;62348;51.412;5.436;2023-07-20T01:47:17;101263.75;;;15.62;89.14
73981;BME280;62348;51.412;5.436;2023-07-20T01:49:42;101258.59;;;15.60;89.70
73981;BME280;62348;51.412;5.436;2023-07-20T01:52:08;101269.19;;;15.67;89.66
73981;BME280;62348;51.412;5.436;2023-07-20T01:54:33;101274.63;;;15.67;90.15
73981;BME280;62348;51.412;5.436;2023-07-20T01:56:59;101279.78;;;15.74;89.81
73981;BME280;62348;51.412;5.436;2023-07-20T01:59:24;101272.97;;;15.76;89.96
73981;BME280;62348;51.412;5.436;2023-07-20T02:01:49;101272.38;;;15.79;89.70
73981;BME280;62348;51.412;5.436;2023-07-20T02:04:15;101270.19;;;15.81;90.04
73981;BME280;62348;51.412;5.436;2023-07-20T02:06:40;101276.50;;;15.77;90.12
73981;BME280;62348;51.412;5.436;2023-07-20T02:09:06;101273.94;;;15.86;89.90
73981;BME280;62348;51.412;5.436;2023-07-20T02:11:31;101274.78;;;15.86;89.73
73981;BME280;62348;51.412;5.436;2023-07-20T02:13:57;101267.94;;;15.89;89.72
73981;BME280;62348;51.412;5.436;2023-07-20T02:16:22;101278.03;;;15.88;90.41
73981;BME280;62348;51.412;5.436;2023-07-20T02:18:47;101280.19;;;15.91;90.27
73981;BME280;62348;51.412;5.436;2023-07-20T02:21:13;101281.56;;;15.89;90.12
73981;BME280;62348;51.412;5.436;2023-07-20T02:23:38;101272.59;;;15.88;90.54
73981;BME280;62348;51.412;5.436;2023-07-20T02:26:03;101275.25;;;15.93;91.10
73981;BME280;62348;51.412;5.436;2023-07-20T02:28:29;101278.53;;;15.95;90.79
73981;BME280;62348;51.412;5.436;2023-07-20T02:30:54;101276.31;;;15.97;91.27
73981;BME280;62348;51.412;5.436;2023-07-20T02:33:20;101278.53;;;15.95;91.09
73981;BME280;62348;51.412;5.436;2023-07-20T02:35:45;101279.63;;;15.94;91.16
73981;BME280;62348;51.412;5.436;2023-07-20T02:38:11;101282.59;;;15.98;91.16
73981;BME280;62348;51.412;5.436;2023-07-20T02:40:36;101293.25;;;15.94;91.50
73981;BME280;62348;51.412;5.436;2023-07-20T02:43:02;101280.69;;;15.93;91.91
73981;BME280;62348;51.412;5.436;2023-07-20T02:45:27;101289.19;;;15.92;92.34
73981;BME280;62348;51.412;5.436;2023-07-20T02:47:52;101290.53;;;15.94;92.58
73981;BME280;62348;51.412;5.436;2023-07-20T02:50:18;101284.25;;;15.94;92.55
73981;BME280;62348;51.412;5.436;2023-07-20T02:52:43;101293.78;;;15.96;92.48
73981;BME280;62348;51.412;5.436;2023-07-20T02:55:09;101293.50;;;15.98;92.79
73981;BME280;62348;51.412;5.436;2023-07-20T02:57:35;101300.03;;;15.97;92.88
73981;BME280;62348;51.412;5.436;2023-07-20T03:00:02;101306.88;;;15.94;93.05
73981;BME280;62348;51.412;5.436;2023-07-20T03:02:29;101311.00;;;15.92;93.80
73981;BME280;62348;51.412;5.436;2023-07-20T03:04:55;101309.66;;;15.89;93.86
73981;BME280;62348;51.412;5.436;2023-07-20T03:07:22;101309.09;;;15.92;93.94
73981;BME280;62348;51.412;5.436;2023-07-20T03:09:48;101316.13;;;15.98;93.48
73981;BME280;62348;51.412;5.436;2023-07-20T03:12:13;101314.72;;;16.01;93.21
73981;BME280;62348;51.412;5.436;2023-07-20T03:14:39;101322.34;;;16.04;93.38
73981;BME280;62348;51.412;5.436;2023-07-20T03:17:04;101322.34;;;16.04;93.38
73981;BME280;62348;51.412;5.436;2023-07-20T03:19:30;101325.88;;;16.05;93.58
73981;BME280;62348;51.412;5.436;2023-07-20T03:21:55;101329.44;;;16.05;92.81
73981;BME280;62348;51.412;5.436;2023-07-20T03:24:20;101321.81;;;16.02;93.51
73981;BME280;62348;51.412;5.436;2023-07-20T03:26:46;101324.00;;;16.05;93.54
73981;BME280;62348;51.412;5.436;2023-07-20T03:29:11;101322.91;;;16.01;93.94
73981;BME280;62348;51.412;5.436;2023-07-20T03:31:37;101318.84;;;15.98;94.26
73981;BME280;62348;51.412;5.436;2023-07-20T03:34:02;101325.41;;;15.97;94.23
73981;BME280;62348;51.412;5.436;2023-07-20T03:36:27;101330.00;;;16.02;94.42
73981;BME280;62348;51.412;5.436;2023-07-20T03:38:53;101325.94;;;15.99;93.91
73981;BME280;62348;51.412;5.436;2023-07-20T03:41:18;101335.22;;;15.98;94.07
73981;BME280;62348;51.412;5.436;2023-07-20T03:43:45;101331.16;;;15.96;94.09
73981;BME280;62348;51.412;5.436;2023-07-20T03:46:10;101335.22;;;15.98;93.94
73981;BME280;62348;51.412;5.436;2023-07-20T03:48:36;101343.38;;;15.98;93.69
73981;BME280;62348;51.412;5.436;2023-07-20T03:51:01;101343.13;;;15.95;93.77
73981;BME280;62348;51.412;5.436;2023-07-20T03:53:27;101335.25;;;15.93;93.86
73981;BME280;62348;51.412;5.436;2023-07-20T03:55:53;101343.13;;;15.95;93.86
73981;BME280;62348;51.412;5.436;2023-07-20T03:58:19;101349.47;;;15.90;93.54
73981;BME280;62348;51.412;5.436;2023-07-20T04:00:45;101345.88;;;15.95;93.00
73981;BME280;62348;51.412;5.436;2023-07-20T04:03:11;101348.66;;;15.90;93.93
73981;BME280;62348;51.412;5.436;2023-07-20T04:05:37;101348.59;;;15.95;93.76
73981;BME280;62348;51.412;5.436;2023-07-20T04:08:02;101345.59;;;15.96;94.06
73981;BME280;62348;51.412;5.436;2023-07-20T04:10:28;101345.06;;;15.94;93.79
73981;BME280;62348;51.412;5.436;2023-07-20T04:12:53;101345.31;;;15.98;93.25
73981;BME280;62348;51.412;5.436;2023-07-20T04:15:18;101345.31;;;15.98;93.11
73981;BME280;62348;51.412;5.436;2023-07-20T04:17:45;101342.84;;;16.02;92.65
73981;BME280;62348;51.412;5.436;2023-07-20T04:20:11;101346.13;;;15.98;92.98
73981;BME280;62348;51.412;5.436;2023-07-20T04:22:36;101347.50;;;15.96;93.15
73981;BME280;62348;51.412;5.436;2023-07-20T04:25:03;101348.03;;;15.98;93.29
73981;BME280;62348;51.412;5.436;2023-07-20T04:27:28;101349.97;;;15.97;92.60
73981;BME280;62348;51.412;5.436;2023-07-20T04:29:54;101354.31;;;15.93;93.04
73981;BME280;62348;51.412;5.436;2023-07-20T04:32:19;101352.16;;;15.95;92.86
73981;BME280;62348;51.412;5.436;2023-07-20T04:34:44;101361.16;;;15.96;92.72
73981;BME280;62348;51.412;5.436;2023-07-20T04:37:10;101360.03;;;15.97;92.53
73981;BME280;62348;51.412;5.436;2023-07-20T04:39:35;101361.16;;;15.96;92.71
73981;BME280;62348;51.412;5.436;2023-07-20T04:42:00;101365.72;;;16.00;93.20
73981;BME280;62348;51.412;5.436;2023-07-20T04:44:26;101362.16;;;16.05;92.94
73981;BME280;62348;51.412;5.436;2023-07-20T04:46:51;101355.63;;;16.01;92.00
73981;BME280;62348;51.412;5.436;2023-07-20T04:49:17;101361.09;;;16.01;91.53
73981;BME280;62348;51.412;5.436;2023-07-20T04:51:42;101354.31;;;15.98;91.71
73981;BME280;62348;51.412;5.436;2023-07-20T04:54:08;101352.38;;;15.99;91.26
73981;BME280;62348;51.412;5.436;2023-07-20T04:56:33;101352.69;;;15.97;91.62
73981;BME280;62348;51.412;5.436;2023-07-20T04:58:59;101348.84;;;15.98;91.27
73981;BME280;62348;51.412;5.436;2023-07-20T05:01:24;101357.63;;;15.95;91.49
73981;BME280;62348;51.412;5.436;2023-07-20T05:03:49;101348.84;;;15.98;90.96
73981;BME280;62348;51.412;5.436;2023-07-20T05:06:15;101349.13;;;15.97;91.26
73981;BME280;62348;51.412;5.436;2023-07-20T05:08:41;101353.00;;;15.91;90.99
73981;BME280;62348;51.412;5.436;2023-07-20T05:11:06;101343.22;;;15.85;90.92
73981;BME280;62348;51.412;5.436;2023-07-20T05:13:32;101350.28;;;15.86;90.88
73981;BME280;62348;51.412;5.436;2023-07-20T05:15:58;101350.81;;;15.88;91.02
73981;BME280;62348;51.412;5.436;2023-07-20T05:18:23;101353.03;;;15.86;89.96
73981;BME280;62348;51.412;5.436;2023-07-20T05:20:49;101361.22;;;15.86;89.70
73981;BME280;62348;51.412;5.436;2023-07-20T05:23:17;101356.06;;;15.84;89.82
73981;BME280;62348;51.412;5.436;2023-07-20T05:25:43;101355.81;;;15.80;89.39
73981;BME280;62348;51.412;5.436;2023-07-20T05:28:08;101362.88;;;15.81;89.63
73981;BME280;62348;51.412;5.436;2023-07-20T05:30:34;101358.22;;;15.82;89.48
73981;BME280;62348;51.412;5.436;2023-07-20T05:32:59;101359.06;;;15.83;89.76
73981;BME280;62348;51.412;5.436;2023-07-20T05:35:25;101370.75;;;15.88;89.75
73981;BME280;62348;51.412;5.436;2023-07-20T05:37:51;101369.38;;;15.86;89.55
73981;BME280;62348;51.412;5.436;2023-07-20T05:40:16;101372.09;;;15.86;88.76
73981;BME280;62348;51.412;5.436;2023-07-20T05:42:47;101374.03;;;15.85;89.25
73981;BME280;62348;51.412;5.436;2023-07-20T05:45:14;101377.56;;;15.86;89.27
73981;BME280;62348;51.412;5.436;2023-07-20T05:47:40;101379.72;;;15.89;88.41
73981;BME280;62348;51.412;5.436;2023-07-20T05:50:06;101383.53;;;15.93;88.01
73981;BME280;62348;51.412;5.436;2023-07-20T05:52:32;101382.91;;;16.01;88.46
73981;BME280;62348;51.412;5.436;2023-07-20T05:54:57;101386.72;;;16.05;88.33
73981;BME280;62348;51.412;5.436;2023-07-20T05:57:23;101386.13;;;16.08;88.64
73981;BME280;62348;51.412;5.436;2023-07-20T05:59:48;101380.66;;;16.13;87.67
73981;BME280;62348;51.412;5.436;2023-07-20T06:02:14;101381.19;;;16.10;88.48
73981;BME280;62348;51.412;5.436;2023-07-20T06:04:39;101384.66;;;16.21;88.61
73981;BME280;62348;51.412;5.436;2023-07-20T06:07:05;101381.63;;;16.28;87.81
73981;BME280;62348;51.412;5.436;2023-07-20T06:09:33;101378.84;;;16.33;87.62
73981;BME280;62348;51.412;5.436;2023-07-20T06:11:58;101381.72;;;16.47;86.93
73981;BME280;62348;51.412;5.436;2023-07-20T06:14:23;101388.81;;;16.48;86.54
73981;BME280;62348;51.412;5.436;2023-07-20T06:16:49;101393.63;;;16.56;87.15
73981;BME280;62348;51.412;5.436;2023-07-20T06:19:14;101389.78;;;16.62;85.09
73981;BME280;62348;51.412;5.436;2023-07-20T06:21:40;101394.63;;;16.65;84.64
73981;BME280;62348;51.412;5.436;2023-07-20T06:24:06;101399.53;;;16.68;84.72
73981;BME280;62348;51.412;5.436;2023-07-20T06:26:31;101395.84;;;17.07;83.71
73981;BME280;62348;51.412;5.436;2023-07-20T06:29:03;101393.00;;;17.42;82.02
73981;BME280;62348;51.412;5.436;2023-07-20T06:31:28;101391.41;;;17.35;81.67
73981;BME280;62348;51.412;5.436;2023-07-20T06:33:54;101392.81;;;17.33;82.30
73981;BME280;62348;51.412;5.436;2023-07-20T06:36:19;101400.31;;;17.22;82.53
73981;BME280;62348;51.412;5.436;2023-07-20T06:38:44;101388.59;;;17.22;82.41
73981;BME280;62348;51.412;5.436;2023-07-20T06:41:10;101393.00;;;17.17;81.39
73981;BME280;62348;51.412;5.436;2023-07-20T06:43:35;101396.16;;;17.06;80.26
73981;BME280;62348;51.412;5.436;2023-07-20T06:46:01;101388.59;;;16.97;80.76
73981;BME280;62348;51.412;5.436;2023-07-20T06:48:26;101393.81;;;16.94;79.02
73981;BME280;62348;51.412;5.436;2023-07-20T06:50:51;101387.53;;;16.93;80.32
73981;BME280;62348;51.412;5.436;2023-07-20T06:53:17;101392.50;;;16.91;80.02
73981;BME280;62348;51.412;5.436;2023-07-20T06:55:43;101391.91;;;16.94;80.02
73981;BME280;62348;51.412;5.436;2023-07-20T06:58:09;101401.56;;;16.87;79.73
73981;BME280;62348;51.412;5.436;2023-07-20T07:00:34;101403.22;;;16.83;79.47
73981;BME280;62348;51.412;5.436;2023-07-20T07:02:59;101408.41;;;16.84;80.25
73981;BME280;62348;51.412;5.436;2023-07-20T07:05:25;101404.31;;;16.82;81.19
73981;BME280;62348;51.412;5.436;2023-07-20T07:07:50;101409.25;;;16.79;80.88
73981;BME280;62348;51.412;5.436;2023-07-20T07:10:16;101401.06;;;16.79;80.53
73981;BME280;62348;51.412;5.436;2023-07-20T07:12:41;101410.34;;;16.78;81.05
73981;BME280;62348;51.412;5.436;2023-07-20T07:15:07;101416.91;;;16.77;81.14
73981;BME280;62348;51.412;5.436;2023-07-20T07:17:33;101418.53;;;16.78;80.79
73981;BME280;62348;51.412;5.436;2023-07-20T07:19:58;101408.44;;;16.79;82.04
73981;BME280;62348;51.412;5.436;2023-07-20T07:22:24;101418.22;;;16.85;81.13
73981;BME280;62348;51.412;5.436;2023-07-20T07:24:49;101411.66;;;16.86;79.99
73981;BME280;62348;51.412;5.436;2023-07-20T07:27:15;101414.09;;;16.88;79.73
73981;BME280;62348;51.412;5.436;2023-07-20T07:29:42;101409.06;;;17.00;80.26
73981;BME280;62348;51.412;5.436;2023-07-20T07:32:09;101413.69;;;17.24;79.85
73981;BME280;62348;51.412;5.436;2023-07-20T07:34:36;101413.97;;;17.46;78.24
73981;BME280;62348;51.412;5.436;2023-07-20T07:37:01;101412.00;;;17.71;77.89
73981;BME280;62348;51.412;5.436;2023-07-20T07:39:27;101414.97;;;17.93;76.08
73981;BME280;62348;51.412;5.436;2023-07-20T07:41:55;101418.91;;;18.06;74.31
73981;BME280;62348;51.412;5.436;2023-07-20T07:44:20;101420.63;;;18.35;72.63
73981;BME280;62348;51.412;5.436;2023-07-20T07:46:46;101429.22;;;18.61;71.51
73981;BME280;62348;51.412;5.436;2023-07-20T07:49:12;101424.63;;;18.89;71.15
73981;BME280;62348;51.412;5.436;2023-07-20T07:51:37;101423.50;;;19.04;69.90
73981;BME280;62348;51.412;5.436;2023-07-20T07:54:03;101436.09;;;19.19;69.09
73981;BME280;62348;51.412;5.436;2023-07-20T07:56:29;101419.94;;;19.45;67.48
73981;BME280;62348;51.412;5.436;2023-07-20T07:58:54;101426.63;;;19.53;65.70
73981;BME280;62348;51.412;5.436;2023-07-20T08:01:20;101425.09;;;19.61;67.37
73981;BME280;62348;51.412;5.436;2023-07-20T08:03:45;101426.72;;;19.76;66.32
73981;BME280;62348;51.412;5.436;2023-07-20T08:06:14;101426.66;;;19.89;66.21
73981;BME280;62348;51.412;5.436;2023-07-20T08:08:39;101431.19;;;20.08;65.17
73981;BME280;62348;51.412;5.436;2023-07-20T08:11:05;101439.81;;;20.15;64.17
73981;BME280;62348;51.412;5.436;2023-07-20T08:13:30;101434.50;;;20.19;63.62
73981;BME280;62348;51.412;5.436;2023-07-20T08:15:57;101427.44;;;20.04;64.50
73981;BME280;62348;51.412;5.436;2023-07-20T08:18:22;101430.50;;;20.02;64.22
73981;BME280;62348;51.412;5.436;2023-07-20T08:20:48;101433.69;;;20.18;65.41
73981;BME280;62348;51.412;5.436;2023-07-20T08:23:14;101432.25;;;20.21;63.82
73981;BME280;62348;51.412;5.436;2023-07-20T08:25:40;101436.44;;;20.41;62.95
73981;BME280;62348;51.412;5.436;2023-07-20T08:28:09;101433.19;;;20.39;61.82
73981;BME280;62348;51.412;5.436;2023-07-20T08:30:45;101431.44;;;20.43;62.43
73981;BME280;62348;51.412;5.436;2023-07-20T08:33:13;101438.13;;;20.28;61.64
73981;BME280;62348;51.412;5.436;2023-07-20T08:35:39;101433.19;;;20.16;62.65
73981;BME280;62348;51.412;5.436;2023-07-20T08:38:04;101432.13;;;20.03;62.92
73981;BME280;62348;51.412;5.436;2023-07-20T08:40:33;101436.25;;;19.92;64.06
73981;BME280;62348;51.412;5.436;2023-07-20T08:43:00;101433.22;;;19.80;63.57
73981;BME280;62348;51.412;5.436;2023-07-20T08:45:27;101429.81;;;19.97;62.10
73981;BME280;62348;51.412;5.436;2023-07-20T08:47:56;101425.53;;;20.27;62.77
73981;BME280;62348;51.412;5.436;2023-07-20T08:50:21;101421.81;;;20.54;61.54
73981;BME280;62348;51.412;5.436;2023-07-20T08:52:48;101427.09;;;20.73;58.99
73981;BME280;62348;51.412;5.436;2023-07-20T08:55:16;101418.31;;;20.94;61.53
73981;BME280;62348;51.412;5.436;2023-07-20T08:57:43;101429.97;;;20.99;59.15
73981;BME280;62348;51.412;5.436;2023-07-20T09:00:11;101422.16;;;21.24;60.72
73981;BME280;62348;51.412;5.436;2023-07-20T09:02:39;101425.47;;;21.52;58.94
73981;BME280;62348;51.412;5.436;2023-07-20T09:05:08;101433.19;;;21.41;56.84
73981;BME280;62348;51.412;5.436;2023-07-20T09:07:36;101428.22;;;21.03;56.90
73981;BME280;62348;51.412;5.436;2023-07-20T09:10:02;101419.72;;;20.82;58.04
73981;BME280;62348;51.412;5.436;2023-07-20T09:12:41;101420.44;;;20.97;58.70
73981;BME280;62348;51.412;5.436;2023-07-20T09:15:08;101415.00;;;21.14;55.83
73981;BME280;62348;51.412;5.436;2023-07-20T09:17:34;101412.28;;;21.23;56.55
73981;BME280;62348;51.412;5.436;2023-07-20T09:20:03;101416.03;;;21.36;54.93
73981;BME280;62348;51.412;5.436;2023-07-20T09:22:33;101415.44;;;21.56;53.93
73981;BME280;62348;51.412;5.436;2023-07-20T09:24:59;101411.25;;;21.59;52.94
73981;BME280;62348;51.412;5.436;2023-07-20T09:27:44;101412.72;;;21.74;55.00
73981;BME280;62348;51.412;5.436;2023-07-20T09:30:11;101416.75;;;21.50;53.15
73981;BME280;62348;51.412;5.436;2023-07-20T09:32:48;101412.13;;;21.28;55.27
73981;BME280;62348;51.412;5.436;2023-07-20T09:35:20;101412.56;;;21.13;55.18
73981;BME280;62348;51.412;5.436;2023-07-20T09:37:59;101411.72;;;21.03;56.64
73981;BME280;62348;51.412;5.436;2023-07-20T09:40:28;101413.13;;;20.83;55.77
73981;BME280;62348;51.412;5.436;2023-07-20T09:42:54;101405.13;;;20.73;55.47
73981;BME280;62348;51.412;5.436;2023-07-20T09:45:35;101401.97;;;20.89;56.43
73981;BME280;62348;51.412;5.436;2023-07-20T09:48:05;101400.94;;;21.16;54.99
73981;BME280;62348;51.412;5.436;2023-07-20T09:50:32;101400.16;;;21.24;54.09
73981;BME280;62348;51.412;5.436;2023-07-20T09:52:58;101398.00;;;21.12;54.70
73981;BME280;62348;51.412;5.436;2023-07-20T09:55:26;101392.97;;;21.05;53.74
73981;BME280;62348;51.412;5.436;2023-07-20T09:57:52;101396.81;;;20.96;53.93
73981;BME280;62348;51.412;5.436;2023-07-20T10:00:19;101392.16;;;20.96;54.24
73981;BME280;62348;51.412;5.436;2023-07-20T10:02:46;101392.28;;;20.91;55.71
73981;BME280;62348;51.412;5.436;2023-07-20T10:05:13;101396.38;;;21.02;55.59
73981;BME280;62348;51.412;5.436;2023-07-20T10:07:43;101396.31;;;21.42;55.95
73981;BME280;62348;51.412;5.436;2023-07-20T10:10:10;101398.28;;;21.68;53.42
73981;BME280;62348;51.412;5.436;2023-07-20T10:12:37;101386.81;;;21.75;51.30
73981;BME280;62348;51.412;5.436;2023-07-20T10:15:11;101392.13;;;21.62;52.54
73981;BME280;62348;51.412;5.436;2023-07-20T10:17:47;101386.78;;;21.49;53.31
73981;BME280;62348;51.412;5.436;2023-07-20T10:20:16;101389.16;;;21.24;53.27
73981;BME280;62348;51.412;5.436;2023-07-20T10:22:42;101381.06;;;21.28;54.63
73981;BME280;62348;51.412;5.436;2023-07-20T10:25:08;101378.84;;;21.38;54.01
73981;BME280;62348;51.412;5.436;2023-07-20T10:27:34;101380.44;;;21.39;52.78
73981;BME280;62348;51.412;5.436;2023-07-20T10:30:00;101374.13;;;21.39;52.83
73981;BME280;62348;51.412;5.436;2023-07-20T10:32:28;101370.72;;;21.33;51.58
73981;BME280;62348;51.412;5.436;2023-07-20T10:34:56;101374.19;;;21.56;52.04
73981;BME280;62348;51.412;5.436;2023-07-20T10:37:47;101374.38;;;21.69;53.06
73981;BME280;62348;51.412;5.436;2023-07-20T10:40:29;101371.59;;;21.60;52.53
73981;BME280;62348;51.412;5.436;2023-07-20T10:43:06;101376.94;;;21.56;52.21
73981;BME280;62348;51.412;5.436;2023-07-20T10:48:03;101371.75;;;21.46;49.45
73981;BME280;62348;51.412;5.436;2023-07-20T10:50:29;101368.81;;;21.51;49.39
73981;BME280;62348;51.412;5.436;2023-07-20T10:53:10;101368.81;;;21.42;51.65
73981;BME280;62348;51.412;5.436;2023-07-20T10:55:36;101365.38;;;21.28;51.38
73981;BME280;62348;51.412;5.436;2023-07-20T10:58:12;101363.25;;;21.16;52.10
73981;BME280;62348;51.412;5.436;2023-07-20T11:05:55;101355.63;;;21.04;53.69
73981;BME280;62348;51.412;5.436;2023-07-20T11:08:41;101359.84;;;21.11;53.79
73981;BME280;62348;51.412;5.436;2023-07-20T11:11:22;101352.56;;;21.06;54.41
73981;BME280;62348;51.412;5.436;2023-07-20T11:14:02;101355.13;;;21.02;53.94
73981;BME280;62348;51.412;5.436;2023-07-20T11:16:33;101353.19;;;21.03;52.91
73981;BME280;62348;51.412;5.436;2023-07-20T11:18:59;101353.41;;;21.15;52.31
73981;BME280;62348;51.412;5.436;2023-07-20T11:21:24;101348.03;;;21.19;53.19
73981;BME280;62348;51.412;5.436;2023-07-20T11:23:52;101343.06;;;21.21;53.14
73981;BME280;62348;51.412;5.436;2023-07-20T11:26:17;101346.28;;;21.23;52.86
73981;BME280;62348;51.412;5.436;2023-07-20T11:28:48;101344.81;;;21.17;53.18
73981;BME280;62348;51.412;5.436;2023-07-20T11:31:14;101342.06;;;21.08;53.60
73981;BME280;62348;51.412;5.436;2023-07-20T11:33:41;101343.81;;;21.04;54.30
73981;BME280;62348;51.412;5.436;2023-07-20T11:36:08;101341.34;;;20.94;53.50
73981;BME280;62348;51.412;5.436;2023-07-20T11:38:34;101335.38;;;20.92;53.51
73981;BME280;62348;51.412;5.436;2023-07-20T11:40:59;101337.81;;;20.93;54.39
73981;BME280;62348;51.412;5.436;2023-07-20T11:43:25;101331.34;;;20.98;55.32
73981;BME280;62348;51.412;5.436;2023-07-20T11:45:51;101337.56;;;21.21;54.36
73981;BME280;62348;51.412;5.436;2023-07-20T11:48:17;101331.78;;;21.49;52.74
73981;BME280;62348;51.412;5.436;2023-07-20T11:50:42;101334.38;;;21.71;53.00
73981;BME280;62348;51.412;5.436;2023-07-20T11:53:08;101337.75;;;21.77;51.64
73981;BME280;62348;51.412;5.436;2023-07-20T11:55:34;101339.22;;;21.83;50.87
73981;BME280;62348;51.412;5.436;2023-07-20T11:58:06;101325.63;;;21.87;50.67
73981;BME280;62348;51.412;5.436;2023-07-20T12:00:33;101330.16;;;21.91;50.40
73981;BME280;62348;51.412;5.436;2023-07-20T12:02:59;101325.44;;;21.92;51.45
73981;BME280;62348;51.412;5.436;2023-07-20T12:05:24;101328.53;;;21.90;50.83
73981;BME280;62348;51.412;5.436;2023-07-20T12:07:51;101327.38;;;22.00;51.30
73981;BME280;62348;51.412;5.436;2023-07-20T12:10:24;101326.25;;;22.01;51.83
73981;BME280;62348;51.412;5.436;2023-07-20T12:12:49;101318.44;;;22.12;53.33
73981;BME280;62348;51.412;5.436;2023-07-20T12:15:23;101320.25;;;21.99;51.14
73981;BME280;62348;51.412;5.436;2023-07-20T12:17:51;101325.13;;;21.93;50.70
73981;BME280;62348;51.412;5.436;2023-07-20T12:20:34;101324.94;;;21.98;51.45
73981;BME280;62348;51.412;5.436;2023-07-20T12:23:13;101327.72;;;21.90;50.19
73981;BME280;62348;51.412;5.436;2023-07-20T12:25:44;101323.03;;;21.81;50.61
73981;BME280;62348;51.412;5.436;2023-07-20T12:28:12;101325.47;;;21.74;50.09
73981;BME280;62348;51.412;5.436;2023-07-20T12:30:39;101325.31;;;21.71;49.86
73981;BME280;62348;51.412;5.436;2023-07-20T12:33:05;101330.97;;;21.57;50.84
73981;BME280;62348;51.412;5.436;2023-07-20T12:35:31;101326.75;;;21.51;51.92
73981;BME280;62348;51.412;5.436;2023-07-20T12:37:57;101323.34;;;21.45;51.73
73981;BME280;62348;51.412;5.436;2023-07-20T12:40:23;101316.22;;;21.35;53.31
73981;BME280;62348;51.412;5.436;2023-07-20T12:42:49;101323.97;;;21.33;53.13
73981;BME280;62348;51.412;5.436;2023-07-20T12:45:14;101323.63;;;21.26;52.87
73981;BME280;62348;51.412;5.436;2023-07-20T12:47:40;101319.25;;;21.16;53.71
73981;BME280;62348;51.412;5.436;2023-07-20T12:50:08;101327.81;;;21.15;53.25
73981;BME280;62348;51.412;5.436;2023-07-20T12:52:38;101321.50;;;21.05;52.05
73981;BME280;62348;51.412;5.436;2023-07-20T12:55:08;101319.72;;;21.01;52.40
73981;BME280;62348;51.412;5.436;2023-07-20T12:57:34;101310.50;;;20.97;52.48
73981;BME280;62348;51.412;5.436;2023-07-20T13:00:01;101317.78;;;21.01;53.36
73981;BME280;62348;51.412;5.436;2023-07-20T13:02:30;101313.91;;;21.02;53.63
73981;BME280;62348;51.412;5.436;2023-07-20T13:04:55;101307.25;;;21.03;53.63